Flight Track Log - Related Links

Times and Time Zones

All times are in EDT time to prevent confusion due to time zone crossing. See the SKW6379 flight status page for this flight to view local times or setup timezone preferences in your user account.

Time Position Orientation Groundspeed Altitude Reporting Facility
EDT Latitude Longitude Course Direction KTS MPH feet Rate Location/Type
Mon 10:52:32 AM 34.2385 -118.9068 305° West  Level Estimated
Mon 10:53:32 AM 34.2836 -118.9834 305° West  Level Estimated
Mon 10:54:32 AM 34.3287 -119.0601 305° West  Level Estimated
Mon 10:55:32 AM 34.3737 -119.1369 305° West  Level Estimated
Mon 10:56:32 AM 34.4187 -119.2138 305° West  Level Estimated
Mon 10:57:32 AM 34.4637 -119.2908 305° West  Level Estimated
Mon 10:58:32 AM 34.5086 -119.3678 305° West  Level Estimated
Mon 10:59:32 AM 34.5534 -119.4449 305° West  Level Estimated
Mon 11:00:32 AM 34.5982 -119.5222 305° West  Level Estimated
Mon 11:01:32 AM 34.6429 -119.5995 305° West  Level Estimated
Mon 11:02:32 AM 34.6876 -119.6768 305° West  Level Estimated
Mon 11:03:32 AM 34.7323 -119.7543 305° West  Level Estimated
Mon 11:04:32 AM 34.7769 -119.8319 305° West  Level Estimated
Mon 11:05:32 AM 34.8214 -119.9095 305° West  Level Estimated
Mon 11:06:32 AM 34.8659 -119.9872 305° West  Level Estimated
Mon 11:07:32 AM 34.9104 -120.0650 305° West  Level Estimated
Mon 11:08:32 AM 34.9548 -120.1429 305° West  Level Estimated
Mon 11:09:32 AM 34.9991 -120.2209 305° West  Level Estimated
Mon 11:10:32 AM 35.0434 -120.2989 305° West  Level Estimated
Mon 11:11:32 AM 35.0877 -120.3771 305° West  Level Estimated
Mon 11:12:32 AM 35.1319 -120.4553 305° West  Level Estimated
Mon 11:13:32 AM 35.1760 -120.5336 305° West  Level Estimated
Mon 11:14:32 AM 35.2201 -120.6120 305° West  Level Estimated
Mon 11:15:32 AM 35.2641 -120.6905 124° Southeast  Level Estimated
Mon 11:16:32 AM 35.2201 -120.6120 305° West  Level Estimated
Mon 11:17:32 AM 35.2641 -120.6905 124° Southeast  Level Estimated
Mon 11:18:32 AM 35.2201 -120.6120 305° West  Level Estimated
Mon 11:19:32 AM 35.2641 -120.6905 124° Southeast  Level Estimated
Mon 11:20:32 AM 35.2201 -120.6120 124° Southeast  Level Estimated

Login

Don't have an account? Register now (free) for customized features, flight alerts, and more!